Time;durP1;ratioP1;P1;durP2;ratioP2;P2;SDS_P1;SDS_P2;PMS_P1;PMS_P2;Temp;Humidity;BMP_temperature;BMP_pressure;BME280_temperature;BME280_humidity;BME280_pressure;Samples;Min_cycle;Max_cycle;Signal;HPM_P1;HPM_P2
2023/11/21 00:01:08;;;;;;;3.45;1.70;;;;;;;11.12;96.98;99464.41;10293602;28;20494;-69
2023/11/21 00:06:10;;;;;;;3.30;1.85;;;;;;;11.06;97.20;99465.00;10284695;28;20141;-70
2023/11/21 00:11:12;;;;;;;4.78;1.80;;;;;;;11.06;97.92;99460.50;10296583;28;20584;-71
2023/11/21 00:16:14;;;;;;;3.55;1.65;;;;;;;11.11;98.10;99465.44;10292608;28;20588;-68
2023/11/21 00:21:16;;;;;;;5.07;1.48;;;;;;;11.07;97.48;99466.69;10294300;28;20050;-69
2023/11/21 00:26:18;;;;;;;3.30;1.30;;;;;;;11.04;97.71;99459.00;10287454;28;20097;-70
2023/11/21 00:31:19;;;;;;;2.90;1.20;;;;;;;11.08;97.94;99468.34;10285421;28;20062;-73
2023/11/21 00:36:21;;;;;;;4.28;1.52;;;;;;;11.05;98.00;99461.53;10273632;28;20080;-70
2023/11/21 00:41:22;;;;;;;3.10;1.60;;;;;;;11.09;98.26;99470.03;10286082;28;20141;-70
2023/11/21 00:46:26;;;;;;;3.47;1.23;;;;;;;11.05;98.77;99463.31;10287189;28;20432;-71
2023/11/21 00:51:28;;;;;;;3.90;1.85;;;;;;;11.04;99.11;99467.81;10290835;28;20058;-71
2023/11/21 00:56:29;;;;;;;3.10;1.40;;;;;;;11.03;99.37;99470.63;10284546;28;20050;-69
2023/11/21 01:01:31;;;;;;;3.03;1.48;;;;;;;11.05;100.00;99464.19;10294306;28;20050;-68
2023/11/21 01:06:33;;;;;;;3.00;1.17;;;;;;;11.09;100.00;99470.03;10290180;28;20061;-70
2023/11/21 01:11:37;;;;;;;5.65;1.90;;;;;;;11.03;100.00;99463.47;10287557;28;20062;-72
2023/11/21 01:16:39;;;;;;;;;;;;;;;11.08;100.00;99485.19;10287055;28;20147;-68
2023/11/21 01:21:40;;;;;;;2.17;1.38;;;;;;;11.11;100.00;99478.75;10251994;28;19930;-74
2023/11/21 01:26:43;;;;;;;3.50;2.03;;;;;;;11.14;100.00;99487.28;10281177;28;20054;-72
2023/11/21 01:31:44;;;;;;;3.63;2.25;;;;;;;11.20;100.00;99493.84;10283994;28;20059;-72
2023/11/21 01:36:46;;;;;;;3.13;1.70;;;;;;;11.20;100.00;99496.50;10284482;28;20132;-72
2023/11/21 01:41:48;;;;;;;3.75;1.70;;;;;;;11.23;100.00;99498.88;10288046;28;20046;-69
2023/11/21 01:46:50;;;;;;;4.22;2.08;;;;;;;11.26;100.00;99497.72;10281103;28;20046;-71
2023/11/21 01:51:52;;;;;;;2.90;1.60;;;;;;;11.27;100.00;99492.28;10284047;28;20054;-71
2023/11/21 01:56:54;;;;;;;4.28;2.00;;;;;;;11.28;100.00;99491.28;10287723;28;20063;-71
2023/11/21 02:01:56;;;;;;;3.78;1.70;;;;;;;11.29;100.00;99492.97;10281677;28;20051;-71
2023/11/21 02:06:57;;;;;;;2.85;2.30;;;;;;;11.26;100.00;99487.94;10281227;28;20069;-68
2023/11/21 02:11:59;;;;;;;4.70;2.63;;;;;;;11.22;100.00;99497.19;10283600;28;20636;-71
2023/11/21 02:17:00;;;;;;;3.13;1.80;;;;;;;11.29;100.00;99508.13;10275463;28;20082;-71
2023/11/21 02:22:04;;;;;;;3.00;1.92;;;;;;;11.28;100.00;99517.91;10285795;28;20062;-68
2023/11/21 02:27:06;;;;;;;1.90;1.47;;;;;;;11.25;100.00;99512.88;10290606;28;20054;-71
2023/11/21 02:32:10;;;;;;;1.45;1.35;;;;;;;11.18;100.00;99511.78;10278892;28;20050;-70
2023/11/21 02:37:12;;;;;;;;;;;;;;;11.19;100.00;99515.31;10271221;28;20070;-73
2023/11/21 02:42:13;;;;;;;2.28;1.30;;;;;;;11.11;100.00;99521.38;10270400;28;19948;-70
2023/11/21 02:47:14;;;;;;;2.63;1.38;;;;;;;11.06;100.00;99502.28;10290190;28;20350;-72
2023/11/21 02:52:16;;;;;;;1.92;1.55;;;;;;;11.11;100.00;99505.38;10288460;28;20129;-69
2023/11/21 02:57:18;;;;;;;2.30;1.33;;;;;;;11.05;100.00;99511.25;10278284;28;20496;-71
2023/11/21 03:02:20;;;;;;;1.40;1.10;;;;;;;11.01;100.00;99505.41;10282269;28;20050;-70
2023/11/21 03:07:21;;;;;;;1.55;1.08;;;;;;;11.00;100.00;99509.03;10280099;28;20057;-71
2023/11/21 03:12:23;;;;;;;1.98;1.33;;;;;;;11.01;100.00;99518.72;10268030;28;20128;-71
2023/11/21 03:17:24;;;;;;;1.58;0.98;;;;;;;11.03;100.00;99510.56;10268854;28;20061;-71
2023/11/21 03:22:26;;;;;;;1.60;0.75;;;;;;;11.00;100.00;99508.22;10282905;28;20073;-69
2023/11/21 03:27:28;;;;;;;1.98;1.10;;;;;;;10.99;100.00;99519.84;10289574;28;20058;-71
2023/11/21 03:32:32;;;;;;;2.38;1.67;;;;;;;11.03;100.00;99531.88;10283338;28;20052;-69
2023/11/21 03:37:35;;;;;;;2.22;2.03;;;;;;;11.08;100.00;99537.59;10277813;28;20060;-70
2023/11/21 03:42:36;;;;;;;2.58;1.92;;;;;;;11.12;100.00;99533.66;10276929;28;20066;-71
2023/11/21 03:47:39;;;;;;;4.28;2.00;;;;;;;11.14;100.00;99537.06;10287583;28;20116;-70
2023/11/21 03:52:42;;;;;;;4.38;2.60;;;;;;;11.15;100.00;99549.38;10284084;28;20042;-71
2023/11/21 03:57:44;;;;;;;4.40;2.10;;;;;;;11.16;100.00;99553.72;10266530;28;20076;-70
2023/11/21 04:02:45;;;;;;;2.35;2.00;;;;;;;11.14;100.00;99558.38;10289225;28;20062;-73
2023/11/21 04:07:49;;;;;;;3.05;1.52;;;;;;;11.12;100.00;99561.16;10279734;28;20058;-70
2023/11/21 04:12:50;;;;;;;2.97;1.35;;;;;;;11.13;100.00;99564.66;10275066;28;20146;-71
2023/11/21 04:17:52;;;;;;;2.67;1.23;;;;;;;11.17;100.00;99573.19;10278070;28;20077;-71
2023/11/21 04:22:53;;;;;;;2.25;1.20;;;;;;;11.18;100.00;99565.06;10285800;28;20141;-72
2023/11/21 04:27:55;;;;;;;1.98;1.50;;;;;;;11.17;100.00;99567.88;10283490;28;20080;-71
2023/11/21 04:32:57;;;;;;;2.25;1.00;;;;;;;11.17;100.00;99579.38;10273161;28;20588;-69
2023/11/21 04:37:58;;;;;;;3.08;1.60;;;;;;;11.14;100.00;99574.34;10289190;28;20046;-70
2023/11/21 04:43:00;;;;;;;2.70;1.85;;;;;;;11.16;100.00;99591.00;10288895;28;20060;-71
2023/11/21 04:48:01;;;;;;;2.10;1.70;;;;;;;11.17;100.00;99590.03;10291707;28;20053;-72
2023/11/21 04:53:03;;;;;;;2.33;1.85;;;;;;;11.18;100.00;99597.03;10286367;28;20616;-68
2023/11/21 04:58:04;;;;;;;3.15;2.58;;;;;;;11.17;100.00;99606.03;10293352;28;20104;-68
2023/11/21 05:03:07;;;;;;;2.90;2.70;;;;;;;11.16;100.00;99612.31;10287013;28;20050;-71
2023/11/21 05:08:08;;;;;;;2.92;2.67;;;;;;;11.21;100.00;99623.38;10261508;28;20049;-68
2023/11/21 05:13:10;;;;;;;4.30;2.80;;;;;;;11.25;100.00;99623.94;10288107;28;20496;-68
2023/11/21 05:18:13;;;;;;;3.40;2.95;;;;;;;11.24;100.00;99620.44;10288188;28;20058;-71
2023/11/21 05:23:17;;;;;;;5.38;4.20;;;;;;;11.28;100.00;99632.47;10288617;28;20124;-71
2023/11/21 05:28:19;;;;;;;6.03;5.00;;;;;;;11.23;100.00;99636.56;10286235;28;20050;-71
2023/11/21 05:33:21;;;;;;;7.05;6.35;;;;;;;11.27;100.00;99653.94;10285989;28;20050;-72
2023/11/21 05:38:22;;;;;;;8.50;6.13;;;;;;;11.30;100.00;99649.19;10275304;28;20473;-73
2023/11/21 05:43:24;;;;;;;12.00;7.60;;;;;;;11.34;100.00;99648.91;10276490;28;20050;-72
2023/11/21 05:48:27;;;;;;;9.68;7.75;;;;;;;11.32;100.00;99663.19;10283223;28;20042;-74
2023/11/21 05:53:28;;;;;;;9.63;7.82;;;;;;;11.30;100.00;99667.84;10272337;28;20046;-73
2023/11/21 05:58:30;;;;;;;8.10;6.95;;;;;;;11.29;100.00;99668.81;10276424;28;20049;-72
2023/11/21 06:03:31;;;;;;;10.73;8.40;;;;;;;11.30;100.00;99674.97;10278268;28;20050;-67
2023/11/21 06:08:33;;;;;;;10.25;8.90;;;;;;;11.22;100.00;99670.34;10282329;28;20064;-69
2023/11/21 06:13:34;;;;;;;11.57;9.05;;;;;;;11.26;100.00;99682.41;10277797;28;20140;-73
2023/11/21 06:18:36;;;;;;;8.57;7.50;;;;;;;11.28;100.00;99683.09;10287326;28;20651;-70
2023/11/21 06:23:38;;;;;;;12.73;8.75;;;;;;;11.15;100.00;99693.22;10271605;28;20676;-69
2023/11/21 06:28:39;;;;;;;12.38;8.85;;;;;;;11.21;100.00;99711.28;10268511;28;20054;-71
2023/11/21 06:33:42;;;;;;;10.00;7.93;;;;;;;11.21;100.00;99713.13;10268121;28;20496;-73
2023/11/21 06:38:45;;;;;;;8.82;6.15;;;;;;;11.17;99.49;99723.22;10278126;28;20522;-76
2023/11/21 06:43:49;;;;;;;4.28;3.80;;;;;;;11.07;99.44;99730.38;10281968;28;20049;-68
2023/11/21 06:48:51;;;;;;;5.43;3.60;;;;;;;11.06;99.47;99732.19;10282805;28;20058;-68
2023/11/21 06:53:52;;;;;;;4.30;3.03;;;;;;;11.07;98.61;99744.53;10273686;28;20762;-67
2023/11/21 06:58:54;;;;;;;4.40;4.00;;;;;;;11.03;98.21;99756.44;10280997;28;20050;-69
2023/11/21 07:03:55;;;;;;;5.88;4.63;;;;;;;10.96;97.79;99763.31;10273966;28;20197;-68
2023/11/21 07:08:58;;;;;;;5.80;5.20;;;;;;;10.94;97.72;99774.09;10281295;28;20069;-74
2023/11/21 07:14:02;;;;;;;5.93;5.32;;;;;;;10.88;98.22;99777.28;10242456;28;20146;-72
2023/11/21 07:19:08;;;;;;;6.75;5.50;;;;;;;10.95;98.32;99783.75;10269984;28;20074;-71
2023/11/21 07:24:11;;;;;;;6.72;5.57;;;;;;;10.99;97.82;99796.78;10269338;28;20145;-70
2023/11/21 07:29:13;;;;;;;5.93;5.25;;;;;;;11.06;97.71;99800.59;10287513;28;20208;-73
2023/11/21 07:34:14;;;;;;;6.03;4.72;;;;;;;11.05;97.30;99809.56;10285044;28;20041;-72
2023/11/21 07:39:16;;;;;;;5.85;4.70;;;;;;;10.97;96.39;99796.94;10260619;28;20046;-77
2023/11/21 07:44:18;;;;;;;5.88;4.95;;;;;;;11.02;96.32;99810.69;10266583;28;20674;-70
2023/11/21 07:49:21;;;;;;;9.43;6.15;;;;;;;11.01;96.59;99802.84;10292236;28;20606;-75
2023/11/21 07:54:22;;;;;;;6.75;5.82;;;;;;;11.07;96.64;99813.78;10292414;28;20076;-69
2023/11/21 07:59:23;;;;;;;6.93;5.18;;;;;;;11.10;96.21;99828.66;10273257;28;20157;-73
2023/11/21 08:04:26;;;;;;;5.95;5.35;;;;;;;11.12;95.32;99826.69;10263499;28;20057;-72
2023/11/21 08:09:29;;;;;;;7.38;5.63;;;;;;;11.13;95.08;99844.34;10291193;28;20070;-72
2023/11/21 08:14:31;;;;;;;9.07;5.93;;;;;;;11.09;95.48;99849.13;10280412;28;20062;-70
2023/11/21 08:19:32;;;;;;;6.72;5.53;;;;;;;11.11;94.80;99846.31;10290963;28;20100;-70
2023/11/21 08:24:34;;;;;;;7.90;5.97;;;;;;;11.13;95.07;99865.66;10271845;28;20069;-72
2023/11/21 08:29:36;;;;;;;6.70;6.00;;;;;;;11.09;94.48;99874.91;10271056;28;20226;-74
2023/11/21 08:34:39;;;;;;;8.00;6.47;;;;;;;11.11;94.01;99872.97;10296615;28;20058;-72
2023/11/21 08:39:41;;;;;;;8.83;6.57;;;;;;;11.03;93.72;99865.63;10306236;28;20077;-72
2023/11/21 08:44:45;;;;;;;7.30;6.20;;;;;;;11.07;94.56;99883.03;10286818;28;20306;-71
2023/11/21 08:49:47;;;;;;;8.53;5.87;;;;;;;11.05;94.03;99879.66;10289695;28;20596;-72
2023/11/21 08:54:55;;;;;;;8.63;5.20;;;;;;;11.11;93.67;99889.78;10293707;28;20304;-71
2023/11/21 08:59:57;;;;;;;9.10;6.45;;;;;;;11.02;94.03;99895.91;10269408;28;20050;-69
2023/11/21 09:04:58;;;;;;;7.97;5.63;;;;;;;10.82;94.63;99907.47;10274250;28;20055;-72
2023/11/21 09:10:03;;;;;;;6.15;5.55;;;;;;;10.98;94.35;99922.97;10277431;28;20137;-72
2023/11/21 09:15:05;;;;;;;7.25;4.95;;;;;;;11.04;93.29;99925.09;10285756;28;20063;-72
2023/11/21 09:20:09;;;;;;;6.13;4.78;;;;;;;11.11;92.13;99934.22;10286388;28;20097;-73
2023/11/21 09:25:13;;;;;;;6.75;5.30;;;;;;;11.11;91.74;99937.72;10279531;28;20066;-74
2023/11/21 09:30:15;;;;;;;6.32;4.40;;;;;;;11.12;91.45;99934.09;10294429;28;20062;-69
2023/11/21 09:35:17;;;;;;;7.75;5.15;;;;;;;11.14;91.56;99941.94;10309395;28;20043;-75
2023/11/21 09:40:22;;;;;;;6.95;4.80;;;;;;;11.26;90.00;99946.19;10282277;28;20508;-71
2023/11/21 09:45:38;;;;;;;5.82;5.20;;;;;;;11.18;89.86;99948.66;10293140;28;20106;-74
2023/11/21 09:50:42;;;;;;;6.63;5.13;;;;;;;11.43;87.62;99951.84;10281921;28;20085;-71
2023/11/21 09:55:46;;;;;;;8.55;5.65;;;;;;;11.79;87.02;99952.19;10315780;28;20076;-71
2023/11/21 10:00:52;;;;;;;6.10;5.38;;;;;;;11.98;86.25;99962.91;10309996;28;20061;-71
2023/11/21 10:05:56;;;;;;;7.43;4.55;;;;;;;12.05;85.39;99957.84;10308449;28;20129;-68
2023/11/21 10:10:59;;;;;;;6.18;4.15;;;;;;;12.25;84.40;99958.69;10299927;28;20054;-73
2023/11/21 10:16:05;;;;;;;6.72;4.85;;;;;;;12.54;83.85;99963.16;10294849;28;20053;-72
2023/11/21 10:21:09;;;;;;;5.78;3.97;;;;;;;13.13;81.66;99979.84;10287362;28;20046;-71
2023/11/21 10:26:16;;;;;;;7.20;3.93;;;;;;;13.74;77.20;99973.09;10285992;28;20058;-71
2023/11/21 10:31:32;;;;;;;5.90;3.75;;;;;;;14.42;73.11;99981.56;10285576;28;20068;-68
2023/11/21 10:36:33;;;;;;;6.22;3.70;;;;;;;14.89;70.68;99975.06;10266750;28;20055;-72
2023/11/21 10:41:35;;;;;;;5.03;3.47;;;;;;;14.81;68.77;99983.88;10281905;28;20578;-70
2023/11/21 10:46:37;;;;;;;5.47;3.72;;;;;;;15.28;67.43;99988.84;10291125;28;20110;-72
2023/11/21 10:51:43;;;;;;;5.93;3.67;;;;;;;15.99;63.82;99985.91;10283349;28;20054;-69
2023/11/21 10:56:46;;;;;;;5.43;3.45;;;;;;;16.38;61.44;99977.22;10288447;28;20050;-72
2023/11/21 11:01:49;;;;;;;9.73;4.70;;;;;;;16.98;59.63;99972.44;10292303;28;20041;-71
2023/11/21 11:06:57;;;;;;;4.85;3.67;;;;;;;17.54;57.22;99970.56;10291212;28;20680;-70
2023/11/21 11:11:59;;;;;;;7.25;4.00;;;;;;;17.66;56.24;99977.22;10290820;28;20065;-73
2023/11/21 11:17:01;;;;;;;5.00;3.70;;;;;;;17.40;57.92;99979.38;10292040;28;20050;-70
2023/11/21 11:22:28;;;;;;;5.18;4.35;;;;;;;16.88;58.45;99980.72;10294493;28;20061;-74
2023/11/21 11:27:54;;;;;;;5.82;4.43;;;;;;;16.37;58.23;99980.91;10287631;28;20066;-75
2023/11/21 11:33:09;;;;;;;5.75;4.28;;;;;;;15.90;59.78;99979.69;10290361;28;20054;-70
2023/11/21 11:38:11;;;;;;;7.47;4.43;;;;;;;15.83;64.82;99979.50;10276949;28;20060;-66
2023/11/21 11:43:27;;;;;;;5.57;5.07;;;;;;;15.64;63.83;99977.06;10271340;28;20448;-66
2023/11/21 11:48:29;;;;;;;5.80;4.97;;;;;;;15.44;64.06;99988.06;10287022;28;20253;-67
2023/11/21 11:53:39;;;;;;;7.88;4.88;;;;;;;15.36;64.14;99985.38;10282153;28;20082;-67
2023/11/21 11:58:41;;;;;;;5.88;4.10;;;;;;;15.13;63.75;99985.94;10271095;28;20196;-67
2023/11/21 12:03:43;;;;;;;5.97;4.85;;;;;;;15.03;65.27;99994.06;10283242;28;20046;-67
2023/11/21 12:08:45;;;;;;;7.50;4.88;;;;;;;14.94;64.04;99995.03;10271736;28;20065;-71
2023/11/21 12:13:47;;;;;;;7.60;4.53;;;;;;;14.99;64.29;99995.38;10264258;28;20038;-69
2023/11/21 12:18:49;;;;;;;7.47;4.88;;;;;;;15.01;63.60;100000.59;10288877;28;20141;-68
2023/11/21 12:23:50;;;;;;;5.85;4.40;;;;;;;14.78;64.41;100001.13;10259336;28;20062;-69
2023/11/21 12:28:57;;;;;;;4.22;3.83;;;;;;;14.55;64.62;100016.00;10281641;28;20053;-70
2023/11/21 12:33:58;;;;;;;6.30;3.95;;;;;;;14.25;65.75;100012.72;10256617;28;20670;-69
2023/11/21 12:39:00;;;;;;;4.45;3.60;;;;;;;14.08;65.76;100017.06;10269326;28;20122;-73
2023/11/21 12:44:01;;;;;;;3.92;3.30;;;;;;;13.94;66.48;100015.75;10271050;28;20585;-71
2023/11/21 12:49:03;;;;;;;4.20;3.80;;;;;;;13.70;66.80;100030.53;10251265;28;20531;-69
2023/11/21 12:54:05;;;;;;;4.63;3.85;;;;;;;13.62;67.86;100043.81;10269415;28;20124;-72
2023/11/21 12:59:13;;;;;;;6.43;4.23;;;;;;;13.68;68.69;100047.75;10267146;28;20148;-70
2023/11/21 13:04:18;;;;;;;5.40;3.53;;;;;;;13.66;68.70;100045.22;10280662;28;20107;-67
2023/11/21 13:09:22;;;;;;;5.03;3.97;;;;;;;13.79;69.32;100044.84;10278564;28;20099;-69
2023/11/21 13:14:29;;;;;;;6.38;3.67;;;;;;;13.97;68.84;100047.56;10278972;28;20568;-71
2023/11/21 13:19:31;;;;;;;6.07;3.80;;;;;;;13.92;67.61;100045.34;10285039;28;20047;-73
2023/11/21 13:24:33;;;;;;;3.97;3.30;;;;;;;13.78;67.47;100054.72;10253499;28;20761;-71
2023/11/21 13:29:35;;;;;;;5.35;3.03;;;;;;;13.83;67.72;100056.13;10288436;28;20086;-72
2023/11/21 13:34:36;;;;;;;4.65;3.00;;;;;;;13.89;66.70;100060.88;10279893;28;20050;-71
2023/11/21 13:39:44;;;;;;;6.72;3.50;;;;;;;13.81;68.21;100074.13;10263771;28;21511;-69
2023/11/21 13:44:48;;;;;;;4.25;3.20;;;;;;;13.55;68.93;100080.16;10267978;28;20058;-72
2023/11/21 13:49:49;;;;;;;4.10;3.33;;;;;;;13.39;69.62;100089.66;10277823;28;20065;-71
2023/11/21 13:54:51;;;;;;;4.40;3.65;;;;;;;13.26;71.16;100092.59;10275180;28;20066;-69
2023/11/21 13:59:52;;;;;;;4.35;3.60;;;;;;;13.15;72.04;100095.47;10292577;28;20617;-71
2023/11/21 14:05:00;;;;;;;7.10;3.80;;;;;;;13.14;73.71;100100.94;10273992;28;20500;-68
2023/11/21 14:10:03;;;;;;;4.03;2.80;;;;;;;13.06;74.62;100102.50;10269695;28;20073;-70
2023/11/21 14:15:09;;;;;;;7.13;3.63;;;;;;;12.99;75.67;100096.03;10287652;28;20053;-73
2023/11/21 14:20:15;;;;;;;5.90;3.55;;;;;;;13.00;76.60;100097.75;10287558;28;20104;-69
2023/11/21 14:25:22;;;;;;;6.03;3.75;;;;;;;12.96;77.09;100106.19;10266477;28;20065;-72
2023/11/21 14:30:24;;;;;;;6.97;4.07;;;;;;;12.91;77.37;100110.13;10261531;28;20055;-69
2023/11/21 14:35:26;;;;;;;6.13;3.63;;;;;;;12.86;77.92;100116.88;10263925;28;20058;-70
2023/11/21 14:40:32;;;;;;;5.05;4.13;;;;;;;12.83;78.21;100122.50;10277270;28;20051;-68
2023/11/21 14:45:34;;;;;;;7.78;4.78;;;;;;;12.78;78.39;100127.44;10278196;28;20055;-71
2023/11/21 14:50:49;;;;;;;8.80;5.35;;;;;;;12.76;78.69;100126.72;10263782;28;20055;-73
2023/11/21 15:00:57;;;;;;;8.73;5.47;;;;;;;12.54;79.79;100136.69;10265191;28;20047;-70
2023/11/21 15:06:18;;;;;;;7.75;4.82;;;;;;;12.38;81.01;100143.41;10263054;28;20050;-68
2023/11/21 15:11:23;;;;;;;6.53;4.88;;;;;;;12.27;82.31;100164.03;10279618;28;20668;-70
2023/11/21 15:16:28;;;;;;;8.52;5.60;;;;;;;12.23;84.39;100165.28;10281137;28;21213;-71
2023/11/21 15:21:29;;;;;;;9.25;5.40;;;;;;;12.13;85.74;100167.91;10281137;28;20059;-71
2023/11/21 15:26:31;;;;;;;7.53;5.10;;;;;;;12.27;84.94;100170.22;10280453;28;20076;-70
2023/11/21 15:31:33;;;;;;;8.43;4.97;;;;;;;12.30;84.62;100159.25;10284415;28;20153;-71
2023/11/21 15:36:35;;;;;;;9.30;5.70;;;;;;;12.30;84.66;100175.28;10275866;28;20053;-71
2023/11/21 15:41:40;;;;;;;7.22;5.25;;;;;;;12.23;85.07;100167.97;10284457;28;20051;-77
2023/11/21 15:46:42;;;;;;;6.88;5.22;;;;;;;12.29;85.30;100186.91;10282947;28;20047;-71
2023/11/21 15:52:03;;;;;;;6.43;5.78;;;;;;;12.32;85.41;100183.97;10283606;28;20097;-69
2023/11/21 15:57:06;;;;;;;8.32;5.60;;;;;;;12.30;85.45;100188.63;10273280;28;20054;-72
2023/11/21 16:02:11;;;;;;;5.97;4.60;;;;;;;12.29;86.03;100194.94;10251449;28;20061;-72
2023/11/21 16:07:14;;;;;;;8.35;5.65;;;;;;;12.33;85.79;100195.53;10266232;28;20061;-71
2023/11/21 16:12:16;;;;;;;6.38;4.93;;;;;;;12.34;86.17;100202.53;10279646;28;20042;-69
2023/11/21 16:17:18;;;;;;;7.47;5.20;;;;;;;12.38;85.78;100211.97;10273336;28;24689;-71
2023/11/21 16:22:20;;;;;;;7.20;4.40;;;;;;;12.35;84.82;100221.06;10278329;28;20160;-73
2023/11/21 16:27:21;;;;;;;8.18;5.95;;;;;;;12.34;84.68;100224.75;10276194;28;20046;-70
2023/11/21 16:32:23;;;;;;;6.43;4.60;;;;;;;12.32;84.46;100225.84;10266694;28;20510;-73
2023/11/21 16:37:24;;;;;;;6.35;3.85;;;;;;;12.28;84.23;100219.94;10273863;28;20051;-71
2023/11/21 16:42:30;;;;;;;6.55;5.22;;;;;;;12.27;84.01;100233.44;10285736;28;20038;-68
2023/11/21 16:47:34;;;;;;;5.95;5.35;;;;;;;12.29;84.63;100242.97;10267595;28;20050;-72
2023/11/21 16:52:40;;;;;;;7.88;5.38;;;;;;;12.19;85.03;100236.78;10276865;28;20152;-75
2023/11/21 16:57:42;;;;;;;9.05;8.15;;;;;;;12.30;85.11;100250.00;10270781;28;20046;-71
2023/11/21 17:02:43;;;;;;;30.88;18.40;;;;;;;12.21;85.12;100258.81;10284436;28;20153;-69
2023/11/21 17:07:46;;;;;;;9.68;6.53;;;;;;;12.28;85.71;100277.81;10278800;28;20656;-68
2023/11/21 17:12:49;;;;;;;5.15;4.22;;;;;;;12.15;86.61;100280.72;10284576;28;20437;-70
2023/11/21 17:17:55;;;;;;;8.98;6.13;;;;;;;12.09;87.37;100278.56;10272379;28;20151;-67
2023/11/21 17:22:57;;;;;;;7.25;5.20;;;;;;;12.14;87.33;100282.50;10257724;28;20056;-69
2023/11/21 17:28:00;;;;;;;15.68;9.00;;;;;;;12.11;87.49;100288.13;10269208;28;20129;-68
2023/11/21 17:33:02;;;;;;;9.60;5.80;;;;;;;12.12;87.47;100305.00;10246706;28;20058;-70
2023/11/21 17:38:03;;;;;;;6.15;5.22;;;;;;;12.09;87.95;100313.25;10279805;28;20061;-68
2023/11/21 17:43:06;;;;;;;7.18;5.78;;;;;;;12.00;88.35;100312.22;10281193;28;20057;-68
2023/11/21 17:48:11;;;;;;;8.35;6.10;;;;;;;12.01;88.31;100314.75;10275835;28;20121;-71
2023/11/21 17:53:12;;;;;;;6.93;5.40;;;;;;;12.01;88.25;100325.44;10264549;28;20057;-67
2023/11/21 17:58:15;;;;;;;7.28;5.35;;;;;;;11.98;88.74;100324.81;10276141;28;20046;-68
2023/11/21 18:03:18;;;;;;;5.97;4.93;;;;;;;11.99;87.88;100331.88;10281297;28;20046;-68
2023/11/21 18:08:20;;;;;;;6.50;4.50;;;;;;;12.01;87.71;100335.28;10263691;28;20176;-68
2023/11/21 18:13:23;;;;;;;5.63;4.68;;;;;;;12.03;87.20;100344.81;10255023;28;20598;-69
2023/11/21 18:18:27;;;;;;;5.15;3.90;;;;;;;11.92;87.05;100358.19;10253575;28;20133;-68
2023/11/21 18:23:28;;;;;;;4.93;3.63;;;;;;;11.72;86.11;100359.03;10263285;28;20080;-68
2023/11/21 18:28:30;;;;;;;2.55;2.35;;;;;;;11.65;87.06;100388.03;10267839;28;20211;-67
2023/11/21 18:33:31;;;;;;;3.65;2.60;;;;;;;11.58;83.64;100393.00;10277372;28;20401;-69
2023/11/21 18:38:33;;;;;;;2.90;2.60;;;;;;;11.44;83.27;100401.28;10259939;28;20444;-69
2023/11/21 18:43:35;;;;;;;2.30;2.10;;;;;;;11.43;82.10;100415.59;10237013;28;20050;-70
2023/11/21 18:48:38;;;;;;;3.40;2.67;;;;;;;11.38;81.18;100428.44;10279953;28;20074;-68
2023/11/21 18:53:40;;;;;;;3.60;2.33;;;;;;;11.17;80.94;100431.88;10257261;28;20054;-71
2023/11/21 18:58:42;;;;;;;3.38;2.70;;;;;;;10.99;79.23;100459.97;10257175;28;20488;-72
2023/11/21 19:03:44;;;;;;;3.97;3.55;;;;;;;10.65;78.10;100467.94;10239483;28;20078;-70
2023/11/21 19:08:45;;;;;;;3.78;3.42;;;;;;;10.59;76.48;100480.75;10260849;28;20046;-70
2023/11/21 19:13:48;;;;;;;6.25;4.78;;;;;;;10.55;76.02;100483.78;10260541;28;20444;-73
2023/11/21 19:18:49;;;;;;;7.80;3.80;;;;;;;10.29;75.58;100491.91;10273485;28;20199;-70
2023/11/21 19:24:03;;;;;;;5.07;4.28;;;;;;;10.16;74.92;100510.56;10234254;28;20140;-73
2023/11/21 19:29:08;;;;;;;5.13;4.53;;;;;;;10.17;74.38;100525.59;10281515;28;20074;-70
2023/11/21 19:34:10;;;;;;;4.68;3.97;;;;;;;9.91;74.35;100527.53;10286989;28;20046;-75
2023/11/21 19:39:13;;;;;;;5.60;4.90;;;;;;;9.79;74.72;100534.59;10287247;28;20149;-71
2023/11/21 19:44:16;;;;;;;5.65;4.55;;;;;;;9.65;76.13;100553.34;10273545;28;20052;-71
2023/11/21 19:49:19;;;;;;;4.88;4.38;;;;;;;9.82;75.64;100550.31;10271074;28;20055;-68
2023/11/21 19:54:21;;;;;;;10.20;7.32;;;;;;;9.78;74.69;100554.16;10270030;28;20505;-71
2023/11/21 19:59:23;;;;;;;5.68;4.60;;;;;;;9.59;76.15;100556.44;10264496;28;20058;-72
2023/11/21 20:04:27;;;;;;;6.05;4.80;;;;;;;9.55;75.14;100572.59;10275008;28;20133;-71
2023/11/21 20:09:29;;;;;;;5.47;4.90;;;;;;;9.45;75.44;100579.53;10281139;28;20698;-70
2023/11/21 20:14:30;;;;;;;6.60;5.05;;;;;;;9.56;75.29;100597.34;10276188;28;20193;-70
2023/11/21 20:19:32;;;;;;;8.98;6.22;;;;;;;9.29;75.24;100601.03;10266487;28;20050;-70
2023/11/21 20:24:35;;;;;;;6.47;5.25;;;;;;;9.22;75.67;100626.31;10281907;28;20065;-70
2023/11/21 20:29:39;;;;;;;5.72;5.13;;;;;;;9.29;76.33;100632.91;10277113;28;20074;-71
2023/11/21 20:34:42;;;;;;;5.70;4.85;;;;;;;9.36;74.50;100638.63;10275056;28;20105;-71
2023/11/21 20:39:48;;;;;;;6.30;4.37;;;;;;;9.49;74.31;100639.47;10282466;28;20077;-71
2023/11/21 20:44:50;;;;;;;5.68;4.93;;;;;;;9.65;74.03;100636.59;10247499;28;20042;-71
2023/11/21 20:49:58;;;;;;;8.73;7.10;;;;;;;9.69;73.76;100656.66;10247785;28;20047;-72
2023/11/21 20:55:01;;;;;;;6.07;4.70;;;;;;;9.59;75.14;100665.41;10278425;28;20078;-71
2023/11/21 21:00:09;;;;;;;5.75;4.32;;;;;;;9.69;74.01;100655.84;10279709;28;20054;-68
2023/11/21 21:05:14;;;;;;;5.72;5.10;;;;;;;9.50;74.70;100662.44;10283054;28;20095;-70
2023/11/21 21:10:16;;;;;;;6.30;4.67;;;;;;;9.68;74.64;100664.75;10236153;28;20050;-70
2023/11/21 21:15:18;;;;;;;5.78;4.85;;;;;;;9.65;74.08;100680.91;10282732;28;20047;-69
2023/11/21 21:20:21;;;;;;;5.30;4.68;;;;;;;9.70;74.39;100678.81;10277954;28;20058;-73
2023/11/21 21:25:24;;;;;;;5.78;4.82;;;;;;;9.62;72.80;100697.91;10303347;28;20050;-72
2023/11/21 21:30:27;;;;;;;7.28;5.00;;;;;;;9.63;73.49;100694.31;10317158;28;20058;-70
2023/11/21 21:35:29;;;;;;;5.77;4.97;;;;;;;9.53;72.69;100703.88;10322319;28;20065;-69
2023/11/21 21:40:32;;;;;;;7.63;4.90;;;;;;;9.44;72.94;100694.72;10318745;28;20056;-72
2023/11/21 21:45:35;;;;;;;4.80;4.20;;;;;;;9.50;73.20;100723.56;10293196;28;20057;-70
2023/11/21 21:50:37;;;;;;;4.32;3.72;;;;;;;9.50;71.76;100731.53;10188657;28;20117;-70
2023/11/21 21:55:42;;;;;;;4.78;3.80;;;;;;;9.53;72.42;100730.44;10260487;28;20050;-71
2023/11/21 22:00:43;;;;;;;4.93;3.85;;;;;;;9.51;72.59;100743.84;10278014;28;21098;-69
2023/11/21 22:05:57;;;;;;;3.40;2.70;;;;;;;9.25;70.16;100752.72;10289387;28;20540;-69
2023/11/21 22:10:59;;;;;;;2.65;2.22;;;;;;;9.25;71.08;100750.94;10271425;28;20046;-69
2023/11/21 22:16:01;;;;;;;2.55;2.35;;;;;;;9.28;69.05;100768.50;10264142;28;20061;-71
2023/11/21 22:21:05;;;;;;;1.98;1.75;;;;;;;9.06;69.40;100769.91;10284272;28;20069;-70
2023/11/21 22:26:07;;;;;;;3.10;2.22;;;;;;;9.12;68.95;100774.78;10281940;28;20137;-68
2023/11/21 22:31:09;;;;;;;2.25;1.75;;;;;;;9.07;68.24;100771.59;10260226;28;20054;-70
2023/11/21 22:36:16;;;;;;;2.03;1.77;;;;;;;9.05;67.01;100777.97;10280841;28;20131;-69
2023/11/21 22:41:26;;;;;;;2.28;1.48;;;;;;;8.88;66.71;100781.72;10278101;28;20424;-69
2023/11/21 22:46:27;;;;;;;1.55;1.25;;;;;;;8.90;66.70;100785.13;10306637;28;20049;-68
2023/11/21 22:51:31;;;;;;;2.13;1.92;;;;;;;8.85;67.51;100793.38;10295371;28;20051;-70
2023/11/21 22:56:33;;;;;;;3.67;1.92;;;;;;;8.84;68.17;100811.13;10287049;28;20058;-69
2023/11/21 23:01:34;;;;;;;2.42;1.98;;;;;;;8.83;67.14;100832.47;10296505;28;20092;-70
2023/11/21 23:06:36;;;;;;;2.22;1.50;;;;;;;8.68;65.69;100850.22;10291511;28;20058;-69
2023/11/21 23:11:38;;;;;;;2.83;2.03;;;;;;;8.69;66.35;100849.25;10287995;28;20520;-71
2023/11/21 23:16:39;;;;;;;2.65;1.40;;;;;;;8.77;64.85;100852.28;10310130;28;20114;-70
2023/11/21 23:21:41;;;;;;;2.00;1.80;;;;;;;8.70;65.96;100848.31;10310616;28;20065;-70
2023/11/21 23:26:43;;;;;;;2.08;1.58;;;;;;;8.65;64.90;100845.09;10305205;28;20161;-69